Time;durP1;ratioP1;P1;durP2;ratioP2;P2;SDS_P1;SDS_P2;PMS_P1;PMS_P2;Temp;Humidity;BMP_temperature;BMP_pressure;BME280_temperature;BME280_humidity;BME280_pressure;Samples;Min_cycle;Max_cycle;Signal;HPM_P1;HPM_P2
2022/05/01 00:00:45;;;;;;;13.70;9.03;;;10.30;99.90;;;;;;5072301;28;20176;-39
2022/05/01 00:03:30;;;;;;;10.23;7.90;;;10.40;99.90;;;;;;5072833;28;20553;-38
2022/05/01 00:06:04;;;;;;;9.40;8.47;;;10.40;99.90;;;;;;5071807;28;20426;-37
2022/05/01 00:08:30;;;;;;;9.43;7.70;;;10.30;99.90;;;;;;5063121;28;20797;-35
2022/05/01 00:10:57;;;;;;;9.70;8.70;;;10.20;99.90;;;;;;5072123;28;20737;-37
2022/05/01 00:13:24;;;;;;;11.60;8.00;;;10.10;99.90;;;;;;5072756;28;20411;-37
2022/05/01 00:15:50;;;;;;;8.60;7.80;;;10.20;99.90;;;;;;5080128;28;21485;-37
2022/05/01 00:18:17;;;;;;;10.33;8.37;;;10.20;99.90;;;;;;5093117;28;20471;-40
2022/05/01 00:20:43;;;;;;;8.93;8.03;;;10.10;99.90;;;;;;5088815;28;20498;-37
2022/05/01 00:23:08;;;;;;;11.70;9.80;;;10.20;99.90;;;;;;5064304;28;20786;-41
2022/05/01 00:25:35;;;;;;;10.90;8.97;;;10.30;99.90;;;;;;5072450;28;20494;-35
2022/05/01 00:28:01;;;;;;;9.30;8.30;;;10.00;99.90;;;;;;5072504;28;20201;-37
2022/05/01 00:30:27;;;;;;;11.63;7.87;;;10.10;99.90;;;;;;5087054;28;20426;-35
2022/05/01 00:38:27;;;;;;;9.50;7.70;;;9.80;99.90;;;;;;5057815;28;20482;-38
2022/05/01 00:40:54;;;;;;;10.20;8.67;;;9.70;99.90;;;;;;5071320;28;20510;-41
2022/05/01 00:43:20;;;;;;;8.20;7.40;;;9.60;99.90;;;;;;5072022;28;20431;-41
2022/05/01 00:45:45;;;;;;;8.57;7.77;;;9.60;99.90;;;;;;5072258;28;20415;-41
2022/05/01 00:48:11;;;;;;;9.67;8.43;;;9.60;99.90;;;;;;5072144;28;20246;-38
2022/05/01 00:50:37;;;;;;;10.00;7.87;;;9.70;99.90;;;;;;5071514;28;20185;-41
2022/05/01 00:53:05;;;;;;;10.43;8.37;;;9.60;99.90;;;;;;5059216;28;20672;-40
2022/05/01 00:55:35;;;;;;;10.13;8.47;;;9.40;99.90;;;;;;5071072;28;20187;-39
2022/05/01 00:58:03;;;;;;;15.53;8.80;;;9.60;99.90;;;;;;5068860;28;20488;-39
2022/05/01 01:00:29;;;;;;;10.70;8.20;;;9.30;99.90;;;;;;5071433;28;20427;-35
2022/05/01 01:02:55;;;;;;;9.40;8.20;;;9.20;99.90;;;;;;5087049;28;21007;-38
2022/05/01 01:05:21;;;;;;;11.33;8.23;;;9.20;99.90;;;;;;5070513;28;20954;-38
2022/05/01 01:07:47;;;;;;;10.47;8.57;;;9.20;99.90;;;;;;5060708;28;20189;-40
2022/05/01 01:10:13;;;;;;;9.33;8.33;;;9.20;99.90;;;;;;5067280;28;21089;-38
2022/05/01 01:12:53;;;;;;;10.97;7.80;;;9.10;99.90;;;;;;5072252;28;20200;-39
2022/05/01 01:15:24;;;;;;;10.83;8.03;;;9.10;99.90;;;;;;5081656;28;20798;-40
2022/05/01 01:17:54;;;;;;;10.33;8.23;;;9.10;99.90;;;;;;5092030;28;20444;-38
2022/05/01 01:20:25;;;;;;;11.00;8.40;;;9.10;99.90;;;;;;5091107;28;20486;-36
2022/05/01 01:22:56;;;;;;;9.33;8.40;;;9.20;99.90;;;;;;5053745;28;20566;-41
2022/05/01 01:25:29;;;;;;;9.80;7.90;;;9.00;99.90;;;;;;5069066;28;20424;-38
2022/05/01 01:28:08;;;;;;;10.10;9.10;;;8.90;99.90;;;;;;5071403;28;20434;-40
2022/05/01 01:33:21;;;;;;;12.27;8.63;;;8.80;99.90;;;;;;5071494;28;20512;-40
2022/05/01 01:35:50;;;;;;;9.87;8.00;;;8.80;99.90;;;;;;5071204;28;20502;-36
2022/05/01 01:38:17;;;;;;;8.80;7.90;;;8.50;99.90;;;;;;5060950;28;20433;-36
2022/05/01 01:40:47;;;;;;;11.00;8.23;;;8.60;99.90;;;;;;5068918;28;20423;-39
2022/05/01 01:43:17;;;;;;;12.00;8.53;;;8.60;99.90;;;;;;5071089;28;20467;-38
2022/05/01 01:45:42;;;;;;;9.90;8.83;;;8.50;99.90;;;;;;5071123;28;20463;-35
2022/05/01 01:48:19;;;;;;;8.33;7.43;;;8.50;99.90;;;;;;5071423;28;20455;-38
2022/05/01 01:50:58;;;;;;;13.73;8.67;;;8.50;99.90;;;;;;5070384;28;20185;-40
2022/05/01 01:53:24;;;;;;;13.17;9.27;;;8.60;99.90;;;;;;5065372;28;20514;-40
2022/05/01 01:55:50;;;;;;;9.83;8.37;;;8.40;99.90;;;;;;5070570;28;20534;-40
2022/05/01 01:58:16;;;;;;;9.40;8.20;;;8.30;99.90;;;;;;5070867;28;20533;-37
2022/05/01 02:00:41;;;;;;;13.47;8.73;;;8.30;99.90;;;;;;5070344;28;20196;-41
2022/05/01 02:03:07;;;;;;;11.87;8.27;;;8.40;99.90;;;;;;5070329;28;20698;-38
2022/05/01 02:05:34;;;;;;;10.37;8.87;;;8.20;99.90;;;;;;5069834;28;20185;-39
2022/05/01 02:08:00;;;;;;;10.57;9.37;;;8.00;99.90;;;;;;5061730;28;20181;-41
2022/05/01 02:10:26;;;;;;;9.17;7.87;;;8.00;99.90;;;;;;5068026;28;20428;-41
2022/05/01 02:12:52;;;;;;;11.40;9.47;;;8.10;99.90;;;;;;5070326;28;20484;-40
2022/05/01 02:15:18;;;;;;;12.50;8.70;;;8.10;99.90;;;;;;5081562;28;20590;-38
2022/05/01 02:17:45;;;;;;;10.73;8.10;;;8.10;99.90;;;;;;5089754;28;20438;-39
2022/05/01 02:20:11;;;;;;;8.83;7.93;;;8.00;99.90;;;;;;5090124;28;21175;-36
2022/05/01 02:22:40;;;;;;;10.10;9.10;;;8.10;99.90;;;;;;5065083;28;20555;-41
2022/05/01 02:25:12;;;;;;;10.50;9.23;;;8.00;99.90;;;;;;5065634;28;20180;-40
2022/05/01 02:27:38;;;;;;;9.37;8.00;;;8.00;99.90;;;;;;5061632;28;20469;-37
2022/05/01 02:30:08;;;;;;;12.03;8.50;;;8.10;99.90;;;;;;5069530;28;21163;-39
2022/05/01 02:32:38;;;;;;;10.07;8.93;;;7.90;99.90;;;;;;5069987;28;21086;-36
2022/05/01 02:35:06;;;;;;;10.20;9.10;;;7.90;99.90;;;;;;5070084;28;20431;-38
2022/05/01 02:37:32;;;;;;;12.40;8.83;;;8.00;99.90;;;;;;5065710;28;20811;-41
2022/05/01 02:39:57;;;;;;;10.23;9.13;;;7.80;99.90;;;;;;5063972;28;20427;-39
2022/05/01 02:42:23;;;;;;;11.40;8.50;;;8.00;99.90;;;;;;5069895;28;20213;-40
2022/05/01 02:44:48;;;;;;;11.07;8.67;;;7.60;99.90;;;;;;5069788;28;20226;-36
2022/05/01 02:47:14;;;;;;;9.50;8.20;;;7.70;99.90;;;;;;5070023;28;20307;-40
2022/05/01 02:49:42;;;;;;;9.67;8.47;;;7.70;99.90;;;;;;5068388;28;20173;-35
2022/05/01 02:52:08;;;;;;;12.27;9.90;;;7.70;99.90;;;;;;5068461;28;20272;-37
2022/05/01 02:54:34;;;;;;;10.90;8.50;;;7.70;99.90;;;;;;5063873;28;20904;-40
2022/05/01 02:57:01;;;;;;;10.40;9.10;;;7.60;99.90;;;;;;5069563;28;20833;-40
2022/05/01 02:59:26;;;;;;;9.50;8.50;;;7.80;99.90;;;;;;5069689;28;20470;-36
2022/05/01 03:01:52;;;;;;;10.07;9.00;;;7.80;99.90;;;;;;5069175;28;20487;-38
2022/05/01 03:04:19;;;;;;;12.47;9.57;;;7.70;99.90;;;;;;5068953;28;20232;-37
2022/05/01 03:06:44;;;;;;;10.20;8.60;;;7.80;99.90;;;;;;5069434;28;20443;-37
2022/05/01 03:09:10;;;;;;;10.50;8.70;;;7.60;99.90;;;;;;5060414;28;20193;-36
2022/05/01 03:11:36;;;;;;;13.03;9.17;;;7.60;99.90;;;;;;5069121;28;20670;-40
2022/05/01 03:14:03;;;;;;;13.43;9.50;;;7.50;99.90;;;;;;5071083;28;20189;-41
2022/05/01 03:16:29;;;;;;;10.90;9.30;;;7.50;99.90;;;;;;5081480;28;20431;-37
2022/05/01 03:24:24;;;;;;;11.77;9.00;;;7.20;99.90;;;;;;5063002;28;20799;-38
2022/05/01 03:26:50;;;;;;;12.13;9.37;;;7.40;99.90;;;;;;5069009;28;20434;-38
2022/05/01 03:29:16;;;;;;;9.20;8.10;;;7.20;99.90;;;;;;5055956;28;20201;-39
2022/05/01 03:31:42;;;;;;;11.40;9.90;;;7.00;99.90;;;;;;5068231;28;20177;-38
2022/05/01 03:34:08;;;;;;;10.80;9.50;;;7.10;99.90;;;;;;5069147;28;20442;-38
2022/05/01 03:36:33;;;;;;;9.80;8.80;;;7.30;99.90;;;;;;5069139;28;20248;-40
2022/05/01 03:39:00;;;;;;;10.37;9.20;;;7.30;99.90;;;;;;5057309;28;20280;-41
2022/05/01 03:41:28;;;;;;;10.40;8.70;;;7.00;99.90;;;;;;5066529;28;20467;-41
2022/05/01 03:43:54;;;;;;;9.73;8.60;;;7.20;99.90;;;;;;5068992;28;20521;-40
2022/05/01 03:46:20;;;;;;;11.10;9.00;;;7.00;99.90;;;;;;5068688;28;20519;-40
2022/05/01 03:48:46;;;;;;;9.77;8.27;;;7.10;99.90;;;;;;5069334;28;20223;-40
2022/05/01 03:51:13;;;;;;;12.00;9.67;;;6.90;99.90;;;;;;5068289;28;20438;-40
2022/05/01 03:53:39;;;;;;;10.77;9.00;;;7.00;99.90;;;;;;5064259;28;20920;-39
2022/05/01 03:56:05;;;;;;;9.63;8.30;;;7.00;99.90;;;;;;5079535;28;20477;-38
2022/05/01 03:58:31;;;;;;;10.83;9.07;;;7.00;99.90;;;;;;5068992;28;20439;-38
2022/05/01 04:00:58;;;;;;;13.33;9.43;;;6.90;99.90;;;;;;5068021;28;20432;-40
2022/05/01 04:03:24;;;;;;;11.30;9.50;;;6.80;99.90;;;;;;5069040;28;20827;-37
2022/05/01 04:05:50;;;;;;;11.50;9.20;;;6.80;99.90;;;;;;5068222;28;20789;-37
2022/05/01 04:08:16;;;;;;;12.03;8.87;;;6.90;99.90;;;;;;5063230;28;20440;-39
2022/05/01 04:10:44;;;;;;;11.40;9.40;;;6.70;99.90;;;;;;5065748;28;20177;-37
2022/05/01 04:13:11;;;;;;;11.40;9.67;;;6.80;99.90;;;;;;5068594;28;20860;-40
2022/05/01 04:15:37;;;;;;;11.87;9.50;;;6.80;99.90;;;;;;5083578;28;20451;-39
2022/05/01 04:18:08;;;;;;;12.00;9.10;;;6.60;99.90;;;;;;5081326;28;20430;-40
2022/05/01 04:20:35;;;;;;;11.83;9.13;;;6.90;99.90;;;;;;5086222;28;20525;-39
2022/05/01 04:23:03;;;;;;;12.53;10.57;;;6.80;99.90;;;;;;5065155;28;20545;-35
2022/05/01 04:25:30;;;;;;;11.13;9.80;;;6.70;99.90;;;;;;5063177;28;20813;-40
2022/05/01 04:28:03;;;;;;;11.93;10.67;;;6.80;99.90;;;;;;5068407;28;20938;-39
2022/05/01 04:30:31;;;;;;;11.77;10.03;;;6.90;99.90;;;;;;5068021;28;20510;-37
2022/05/01 04:33:04;;;;;;;13.53;9.50;;;6.90;99.90;;;;;;5068506;28;20434;-38
2022/05/01 04:35:34;;;;;;;11.70;10.33;;;6.80;99.90;;;;;;5068777;28;20431;-40
2022/05/01 04:38:04;;;;;;;11.63;10.17;;;6.90;99.90;;;;;;5066024;28;20435;-37
2022/05/01 04:40:34;;;;;;;11.93;10.40;;;7.00;99.90;;;;;;5062904;28;20427;-40
2022/05/01 04:43:18;;;;;;;14.30;10.70;;;6.80;99.90;;;;;;5071992;28;20471;-37
2022/05/01 04:45:52;;;;;;;12.30;10.00;;;7.00;99.90;;;;;;5061357;28;20764;-38
2022/05/01 04:48:20;;;;;;;12.57;10.50;;;6.80;99.90;;;;;;5072045;28;20430;-36
2022/05/01 04:50:47;;;;;;;11.47;10.37;;;6.70;99.90;;;;;;5071448;28;20426;-40
2022/05/01 04:53:14;;;;;;;11.20;10.00;;;6.70;99.90;;;;;;5067982;28;20446;-34
2022/05/01 04:55:42;;;;;;;12.10;9.90;;;6.90;99.90;;;;;;5064895;28;20430;-41
2022/05/01 04:58:09;;;;;;;12.03;10.57;;;7.00;99.90;;;;;;5071963;28;20476;-38
2022/05/01 05:00:35;;;;;;;14.50;10.90;;;6.80;99.90;;;;;;5071336;28;20431;-39
2022/05/01 05:03:02;;;;;;;12.30;10.63;;;6.80;99.90;;;;;;5071847;28;20870;-41
2022/05/01 05:05:29;;;;;;;13.57;10.63;;;7.10;99.90;;;;;;5070697;28;20778;-37
2022/05/01 05:07:55;;;;;;;11.03;9.83;;;7.10;99.90;;;;;;5070547;28;20431;-34
2022/05/01 05:10:21;;;;;;;11.57;10.30;;;7.20;99.90;;;;;;5061291;28;20442;-38
2022/05/01 05:12:48;;;;;;;14.50;10.87;;;7.40;99.90;;;;;;5071707;28;20427;-41
2022/05/01 05:15:16;;;;;;;13.27;10.47;;;7.40;99.90;;;;;;5083417;28;20639;-38
2022/05/01 05:17:43;;;;;;;14.13;11.43;;;7.70;99.90;;;;;;5087233;28;20430;-38
2022/05/01 05:20:11;;;;;;;13.10;10.37;;;8.00;99.90;;;;;;5090862;28;20560;-36
2022/05/01 05:22:39;;;;;;;14.83;10.87;;;8.00;99.90;;;;;;5072288;28;20455;-39
2022/05/01 05:25:09;;;;;;;13.27;11.83;;;8.30;99.90;;;;;;5062202;28;20833;-40
2022/05/01 05:27:35;;;;;;;12.60;10.53;;;8.00;99.90;;;;;;5071253;28;20930;-39
2022/05/01 05:30:01;;;;;;;12.60;11.00;;;8.00;99.90;;;;;;5070676;28;20434;-41
2022/05/01 05:32:27;;;;;;;15.20;10.53;;;8.30;99.90;;;;;;5071337;28;20208;-40
2022/05/01 05:34:53;;;;;;;13.23;11.60;;;8.10;99.90;;;;;;5071338;28;20423;-38
2022/05/01 05:37:19;;;;;;;11.80;10.43;;;7.90;99.90;;;;;;5071053;28;20185;-38
2022/05/01 05:39:46;;;;;;;13.10;10.40;;;7.90;99.90;;;;;;5057783;28;20198;-36
2022/05/01 05:42:11;;;;;;;12.80;11.40;;;7.80;99.90;;;;;;5070432;28;20553;-37
2022/05/01 05:44:38;;;;;;;12.37;11.07;;;8.00;99.90;;;;;;5071066;28;20510;-38
2022/05/01 05:47:04;;;;;;;17.00;12.17;;;7.90;99.90;;;;;;5070792;28;20213;-41
2022/05/01 05:49:34;;;;;;;13.10;11.40;;;8.10;99.90;;;;;;5070513;28;20497;-41
2022/05/01 05:52:00;;;;;;;17.30;12.77;;;7.90;99.90;;;;;;5078402;28;20915;-39
2022/05/01 05:54:26;;;;;;;15.00;12.50;;;7.90;99.90;;;;;;5061791;28;20475;-37
2022/05/01 05:56:52;;;;;;;14.17;11.33;;;7.90;99.90;;;;;;5070624;28;20439;-40
2022/05/01 05:59:17;;;;;;;14.20;12.20;;;7.80;99.90;;;;;;5070714;28;20964;-41
2022/05/01 06:01:43;;;;;;;14.50;12.10;;;8.00;99.90;;;;;;5068613;28;20224;-37
2022/05/01 06:04:09;;;;;;;13.90;12.20;;;8.00;99.90;;;;;;5070594;28;20192;-40
2022/05/01 06:06:35;;;;;;;16.00;12.20;;;8.00;99.90;;;;;;5069160;28;20208;-39
2022/05/01 06:09:01;;;;;;;14.47;11.60;;;8.10;99.90;;;;;;5065406;28;20268;-40
2022/05/01 06:11:27;;;;;;;15.50;11.80;;;8.10;99.90;;;;;;5063588;28;20427;-39
2022/05/01 06:13:54;;;;;;;15.03;11.43;;;8.30;99.90;;;;;;5069000;28;20431;-40
2022/05/01 06:16:19;;;;;;;12.00;10.77;;;8.30;99.90;;;;;;5090613;28;20184;-38
2022/05/01 06:18:46;;;;;;;14.33;12.10;;;8.30;99.90;;;;;;5089412;28;20429;-41
2022/05/01 06:21:12;;;;;;;15.53;13.70;;;8.60;99.90;;;;;;5073185;28;20196;-40
2022/05/01 06:23:38;;;;;;;13.53;12.03;;;8.60;99.90;;;;;;5067546;28;20769;-39
2022/05/01 06:26:07;;;;;;;14.03;11.90;;;8.60;99.90;;;;;;5064100;28;20627;-41
2022/05/01 06:28:33;;;;;;;18.03;12.60;;;8.60;99.90;;;;;;5069401;28;20782;-40
2022/05/01 06:31:02;;;;;;;13.60;11.83;;;8.60;99.90;;;;;;5068916;28;20504;-37
2022/05/01 06:33:28;;;;;;;15.90;13.50;;;8.80;99.90;;;;;;5069408;28;20563;-40
2022/05/01 06:35:55;;;;;;;16.20;12.90;;;9.00;99.90;;;;;;5069079;28;20801;-40
2022/05/01 06:38:22;;;;;;;14.03;12.47;;;9.10;99.90;;;;;;5069515;28;20423;-41
2022/05/01 06:40:48;;;;;;;14.50;12.20;;;9.10;99.90;;;;;;5064904;28;20424;-39
2022/05/01 06:43:15;;;;;;;12.03;9.70;;;9.30;99.90;;;;;;5068548;28;21088;-40
2022/05/01 06:45:41;;;;;;;12.47;10.60;;;9.40;99.90;;;;;;5067731;28;20493;-40
2022/05/01 06:48:08;;;;;;;11.70;9.90;;;9.60;99.90;;;;;;5069619;28;20411;-39
2022/05/01 06:50:34;;;;;;;10.27;8.57;;;9.70;99.90;;;;;;5068270;28;20435;-40
2022/05/01 06:53:00;;;;;;;10.50;8.87;;;10.00;99.90;;;;;;5071279;28;20423;-38
2022/05/01 06:55:26;;;;;;;13.43;9.87;;;9.90;99.90;;;;;;5065697;28;20300;-40
2022/05/01 06:57:55;;;;;;;11.03;9.87;;;10.10;99.90;;;;;;5069304;28;20471;-40
2022/05/01 07:00:22;;;;;;;12.13;9.17;;;10.20;99.90;;;;;;5067428;28;20449;-40
2022/05/01 07:02:50;;;;;;;15.93;9.90;;;10.20;99.90;;;;;;5064289;28;20486;-38
2022/05/01 07:05:17;;;;;;;11.97;9.50;;;10.20;99.90;;;;;;5067834;28;20485;-39
2022/05/01 07:07:43;;;;;;;10.60;9.23;;;10.30;99.90;;;;;;5069329;28;20427;-37
2022/05/01 07:10:09;;;;;;;11.80;9.40;;;10.30;99.90;;;;;;5057307;28;20439;-40
2022/05/01 07:12:35;;;;;;;11.67;9.50;;;10.30;99.90;;;;;;5067137;28;20227;-40
2022/05/01 07:15:01;;;;;;;10.20;9.13;;;10.60;99.90;;;;;;5078484;28;20454;-41
2022/05/01 07:17:27;;;;;;;10.20;9.10;;;10.50;99.90;;;;;;5088899;28;20434;-40
2022/05/01 07:19:52;;;;;;;11.17;9.47;;;10.50;99.90;;;;;;5078005;28;20786;-40
2022/05/01 07:22:18;;;;;;;10.23;9.13;;;10.60;99.90;;;;;;5072752;28;21185;-40
2022/05/01 07:24:44;;;;;;;11.97;9.90;;;10.50;99.90;;;;;;5063411;28;20303;-37
2022/05/01 07:27:10;;;;;;;11.43;10.30;;;10.60;99.90;;;;;;5065203;28;20449;-40
2022/05/01 07:29:36;;;;;;;10.60;9.50;;;10.60;99.90;;;;;;5068783;28;20187;-35
2022/05/01 07:32:02;;;;;;;11.77;10.50;;;10.70;99.90;;;;;;5066170;28;20208;-41
2022/05/01 07:34:27;;;;;;;11.20;10.10;;;10.80;99.90;;;;;;5069054;28;20459;-41
2022/05/01 07:36:53;;;;;;;10.30;9.27;;;10.90;99.90;;;;;;5068923;28;20181;-37
2022/05/01 07:39:19;;;;;;;10.87;9.77;;;10.90;99.90;;;;;;5067555;28;20223;-40
2022/05/01 07:41:45;;;;;;;12.87;9.53;;;10.90;99.90;;;;;;5063235;28;20601;-40
2022/05/01 07:44:13;;;;;;;11.23;9.60;;;11.10;99.90;;;;;;5069246;28;20185;-34
2022/05/01 07:46:40;;;;;;;15.30;9.57;;;11.20;99.90;;;;;;5068167;28;20552;-37
2022/05/01 07:49:06;;;;;;;10.40;9.30;;;11.30;99.90;;;;;;5068353;28;20423;-40
2022/05/01 07:51:32;;;;;;;13.43;9.47;;;11.20;99.90;;;;;;5065850;28;20447;-38
2022/05/01 07:53:58;;;;;;;10.93;9.37;;;11.40;99.90;;;;;;5068094;28;20431;-39
2022/05/01 07:56:28;;;;;;;12.60;9.57;;;11.40;99.90;;;;;;5060498;28;20299;-38
2022/05/01 07:58:54;;;;;;;13.83;10.03;;;11.50;99.90;;;;;;5068645;28;20423;-41
2022/05/01 08:01:20;;;;;;;12.13;9.77;;;11.60;99.90;;;;;;5072530;28;20477;-38
2022/05/01 08:06:30;;;;;;;10.13;8.77;;;11.70;99.90;;;;;;5071279;28;20513;-39
2022/05/01 08:08:56;;;;;;;10.53;9.43;;;11.90;99.90;;;;;;5076376;28;20553;-38
2022/05/01 08:11:22;;;;;;;14.60;9.80;;;12.00;99.90;;;;;;5064068;28;20247;-41
2022/05/01 08:13:48;;;;;;;11.60;9.70;;;12.00;99.90;;;;;;5067360;28;20656;-39
2022/05/01 08:16:14;;;;;;;11.83;9.93;;;12.10;99.90;;;;;;5068631;28;20690;-38
2022/05/01 08:21:24;;;;;;;11.17;10.07;;;12.30;99.90;;;;;;5071979;28;20438;-37
2022/05/01 08:23:52;;;;;;;11.60;10.40;;;12.40;99.90;;;;;;5075225;28;20427;-36
2022/05/01 08:26:18;;;;;;;12.70;11.50;;;12.50;99.90;;;;;;5060190;28;20193;-41
2022/05/01 08:28:45;;;;;;;10.40;9.33;;;12.60;99.90;;;;;;5071658;28;20909;-40
2022/05/01 08:31:11;;;;;;;11.27;10.13;;;12.80;99.90;;;;;;5071424;28;20434;-38
2022/05/01 08:33:37;;;;;;;10.93;9.60;;;13.00;99.90;;;;;;5071665;28;20423;-40
2022/05/01 08:36:06;;;;;;;11.03;9.63;;;13.10;99.90;;;;;;5071698;28;20271;-39
2022/05/01 08:38:35;;;;;;;10.67;9.60;;;13.20;99.90;;;;;;5065404;28;20466;-39
2022/05/01 08:41:00;;;;;;;12.77;10.17;;;13.30;99.90;;;;;;5068386;28;20766;-39
2022/05/01 08:43:26;;;;;;;10.60;9.37;;;13.50;99.90;;;;;;5071068;28;20469;-41
2022/05/01 08:46:23;;;;;;;10.20;9.20;;;13.40;99.90;;;;;;5071470;28;20189;-38
2022/05/01 08:49:04;;;;;;;10.70;9.70;;;13.50;99.90;;;;;;5067650;28;20243;-35
2022/05/01 08:51:35;;;;;;;10.20;9.20;;;13.50;99.90;;;;;;5075620;28;20446;-37
2022/05/01 08:54:05;;;;;;;11.67;8.83;;;13.40;99.90;;;;;;5075634;28;20427;-41
2022/05/01 08:56:36;;;;;;;8.33;7.40;;;13.40;99.90;;;;;;5059850;28;20534;-40
2022/05/01 08:59:05;;;;;;;10.20;8.07;;;13.50;99.90;;;;;;5076927;28;20450;-41
2022/05/01 09:01:33;;;;;;;9.00;8.10;;;13.50;99.90;;;;;;5070497;28;20866;-38
2022/05/01 09:03:59;;;;;;;11.10;9.27;;;13.60;99.90;;;;;;5071216;28;20856;-40
2022/05/01 09:06:25;;;;;;;10.50;8.63;;;13.60;99.90;;;;;;5073215;28;20442;-38
2022/05/01 09:08:51;;;;;;;8.30;7.43;;;13.50;99.90;;;;;;5068600;28;20974;-40
2022/05/01 09:14:06;;;;;;;10.30;8.70;;;13.60;99.90;;;;;;5070902;28;20664;-37
2022/05/01 09:16:36;;;;;;;9.60;8.67;;;13.60;99.90;;;;;;5069684;28;20462;-38
2022/05/01 09:19:02;;;;;;;10.27;8.73;;;13.60;99.90;;;;;;5065376;28;20427;-41
2022/05/01 09:21:48;;;;;;;10.07;9.10;;;13.70;99.90;;;;;;5069881;28;20423;-37
2022/05/01 09:24:14;;;;;;;10.50;8.13;;;13.70;99.90;;;;;;5070614;28;20427;-39
2022/05/01 09:26:40;;;;;;;9.60;8.60;;;13.80;99.90;;;;;;5058301;28;20509;-37
2022/05/01 09:29:06;;;;;;;9.43;7.90;;;13.80;99.90;;;;;;5070652;28;20212;-41
2022/05/01 09:31:46;;;;;;;9.90;8.90;;;13.80;99.90;;;;;;5084975;28;20455;-40
2022/05/01 09:34:30;;;;;;;11.00;8.83;;;13.90;99.90;;;;;;5070475;28;20189;-35
2022/05/01 09:36:57;;;;;;;10.40;7.63;;;13.90;99.90;;;;;;5102794;28;20442;-36
2022/05/01 09:39:25;;;;;;;9.90;8.10;;;14.00;99.90;;;;;;5085983;28;20422;-41
2022/05/01 09:41:52;;;;;;;9.30;8.40;;;13.90;99.90;;;;;;5073031;28;20502;-38
2022/05/01 09:44:19;;;;;;;9.30;7.63;;;13.90;99.90;;;;;;5070251;28;20759;-41
2022/05/01 09:46:50;;;;;;;9.60;8.60;;;14.00;99.90;;;;;;5076011;28;20437;-40
2022/05/01 09:49:18;;;;;;;9.40;8.47;;;14.00;99.90;;;;;;5074192;28;20419;-39
2022/05/01 09:51:54;;;;;;;9.30;7.73;;;13.80;99.30;;;;;;5079269;28;20427;-40
2022/05/01 09:54:26;;;;;;;9.90;8.90;;;13.70;99.70;;;;;;5067095;28;20432;-40
2022/05/01 09:57:00;;;;;;;8.50;7.70;;;13.70;99.90;;;;;;5063244;28;20501;-40
2022/05/01 09:59:28;;;;;;;8.23;7.33;;;13.80;99.90;;;;;;5069806;28;20442;-40
2022/05/01 10:02:06;;;;;;;8.53;7.73;;;13.90;99.90;;;;;;5077788;28;20462;-40
2022/05/01 10:04:34;;;;;;;8.50;7.70;;;13.90;99.90;;;;;;5080136;28;20487;-40
2022/05/01 10:07:00;;;;;;;9.73;8.73;;;14.00;98.90;;;;;;5068839;28;20438;-36
2022/05/01 10:09:27;;;;;;;9.60;8.10;;;14.00;99.50;;;;;;5066523;28;20415;-38
2022/05/01 10:11:55;;;;;;;9.33;8.37;;;14.00;99.70;;;;;;5061575;28;21215;-41
2022/05/01 10:14:22;;;;;;;9.33;8.43;;;14.10;99.60;;;;;;5066893;28;21039;-40
2022/05/01 10:16:48;;;;;;;9.70;8.80;;;14.10;98.60;;;;;;5069260;28;20489;-41
2022/05/01 10:19:17;;;;;;;8.83;8.03;;;14.10;98.40;;;;;;5071161;28;20442;-40
2022/05/01 10:21:48;;;;;;;9.40;7.17;;;14.20;97.60;;;;;;5069878;28;20830;-39
2022/05/01 10:24:18;;;;;;;8.50;7.07;;;14.20;98.50;;;;;;5070580;28;20479;-38
2022/05/01 10:27:05;;;;;;;8.70;7.80;;;14.30;98.10;;;;;;5063675;28;20436;-36
2022/05/01 10:33:19;;;;;;;9.60;8.70;;;14.30;98.10;;;;;;5069306;28;20419;-39
2022/05/01 10:36:30;;;;;;;9.23;8.43;;;14.30;98.80;;;;;;5066214;28;20506;-37
2022/05/01 10:39:06;;;;;;;9.27;8.27;;;14.40;99.30;;;;;;5093017;28;20506;-40
2022/05/01 10:41:33;;;;;;;10.90;9.43;;;14.40;99.60;;;;;;5072819;28;20442;-42
2022/05/01 10:44:00;;;;;;;11.67;9.80;;;14.30;99.10;;;;;;5076314;28;20456;-38
2022/05/01 10:46:29;;;;;;;11.23;9.73;;;14.30;99.10;;;;;;5077072;28;20820;-40
2022/05/01 10:49:00;;;;;;;10.47;9.43;;;14.30;99.10;;;;;;5077331;28;20491;-35
2022/05/01 10:51:30;;;;;;;10.63;9.50;;;14.30;99.90;;;;;;5077359;28;20455;-40
2022/05/01 10:54:11;;;;;;;9.17;8.17;;;14.40;99.70;;;;;;5075107;28;20422;-38
2022/05/01 10:56:38;;;;;;;9.90;9.00;;;14.40;99.50;;;;;;5068808;28;20442;-38
2022/05/01 10:59:33;;;;;;;10.13;9.13;;;14.40;99.50;;;;;;5069752;28;20419;-37
2022/05/01 11:02:04;;;;;;;9.83;8.83;;;14.40;99.30;;;;;;5067538;28;21023;-39
2022/05/01 11:04:42;;;;;;;9.57;8.57;;;14.50;99.10;;;;;;5070711;28;20458;-38
2022/05/01 11:07:14;;;;;;;8.97;8.23;;;14.60;98.00;;;;;;5072882;28;20423;-40
2022/05/01 11:09:42;;;;;;;8.80;7.97;;;14.60;97.50;;;;;;5066509;28;20468;-36
2022/05/01 11:12:09;;;;;;;13.20;9.20;;;14.70;97.70;;;;;;5062116;28;20515;-40
2022/05/01 11:14:54;;;;;;;10.33;9.40;;;14.70;98.20;;;;;;5069492;28;20526;-39
2022/05/01 11:17:49;;;;;;;9.43;8.63;;;14.70;98.50;;;;;;5068387;28;20430;-41
2022/05/01 11:20:14;;;;;;;11.53;8.73;;;14.80;98.00;;;;;;5076898;28;20547;-37
2022/05/01 11:22:41;;;;;;;9.63;8.63;;;14.90;98.30;;;;;;5077485;28;20483;-40
2022/05/01 11:25:13;;;;;;;10.80;8.57;;;15.00;97.90;;;;;;5067854;28;20985;-40
2022/05/01 11:27:51;;;;;;;9.80;8.80;;;15.10;97.90;;;;;;5065845;28;20439;-39
2022/05/01 11:30:37;;;;;;;10.10;9.13;;;15.10;96.70;;;;;;5072176;28;20419;-41
2022/05/01 11:33:08;;;;;;;9.03;8.23;;;15.00;95.70;;;;;;5068119;28;20782;-39
2022/05/01 11:35:56;;;;;;;7.33;6.60;;;14.90;96.90;;;;;;5068497;28;20514;-40
2022/05/01 11:38:39;;;;;;;9.63;7.90;;;15.00;96.40;;;;;;5068546;28;20423;-40
2022/05/01 11:41:06;;;;;;;8.13;7.33;;;15.00;94.90;;;;;;5064113;28;21642;-36
2022/05/01 11:43:35;;;;;;;7.17;6.33;;;15.00;95.50;;;;;;5062774;28;20467;-41
2022/05/01 11:46:02;;;;;;;7.93;7.23;;;15.10;95.80;;;;;;5069084;28;20442;-36
2022/05/01 11:48:29;;;;;;;8.90;7.30;;;15.20;95.90;;;;;;5069024;28;20427;-40
2022/05/01 11:50:58;;;;;;;8.20;7.40;;;15.20;95.90;;;;;;5068393;28;20442;-38
2022/05/01 11:53:33;;;;;;;8.40;7.33;;;15.40;95.90;;;;;;5068893;28;20434;-38
2022/05/01 12:04:34;;;;;;;10.67;7.80;;;16.10;94.20;;;;;;5075705;28;20529;-38
2022/05/01 12:07:17;;;;;;;7.20;6.57;;;16.20;92.90;;;;;;5070541;28;20752;-40
2022/05/01 12:09:44;;;;;;;8.83;8.03;;;16.50;96.10;;;;;;5086906;28;20521;-37
2022/05/01 12:12:12;;;;;;;9.87;9.03;;;16.70;93.70;;;;;;5070356;28;20435;-40
2022/05/01 12:14:42;;;;;;;9.77;8.77;;;16.80;92.20;;;;;;5072099;28;20442;-39
2022/05/01 12:17:18;;;;;;;8.80;7.77;;;16.60;91.20;;;;;;5067566;28;20865;-40
2022/05/01 12:19:47;;;;;;;8.90;8.20;;;16.30;90.10;;;;;;5068252;28;20447;-37
2022/05/01 12:22:31;;;;;;;11.53;8.33;;;16.10;91.40;;;;;;5068628;28;20462;-41
2022/05/01 12:25:00;;;;;;;7.80;7.10;;;16.00;91.00;;;;;;5066502;28;20439;-39
2022/05/01 12:27:26;;;;;;;8.80;7.90;;;16.00;92.30;;;;;;5060942;28;20443;-37
2022/05/01 12:29:53;;;;;;;9.63;7.90;;;16.10;91.90;;;;;;5067767;28;20277;-38
2022/05/01 12:32:20;;;;;;;8.63;7.83;;;16.10;92.00;;;;;;5072053;28;20200;-40
2022/05/01 12:34:49;;;;;;;8.73;7.93;;;16.10;91.80;;;;;;5068366;28;20468;-40
2022/05/01 12:37:20;;;;;;;10.63;9.57;;;16.00;91.70;;;;;;5068615;28;20901;-38
2022/05/01 12:40:12;;;;;;;9.97;8.97;;;16.00;93.20;;;;;;5066948;28;20451;-41
2022/05/01 12:45:43;;;;;;;10.33;9.43;;;16.00;93.90;;;;;;5067767;28;20484;-40
2022/05/01 12:48:12;;;;;;;10.00;9.10;;;16.00;93.90;;;;;;5068615;28;20423;-36
2022/05/01 12:50:38;;;;;;;10.80;9.33;;;16.10;94.50;;;;;;5067947;28;20510;-39
2022/05/01 12:53:32;;;;;;;10.77;9.77;;;15.90;94.40;;;;;;5068553;28;20986;-36
2022/05/01 12:56:14;;;;;;;12.23;11.03;;;16.00;94.60;;;;;;5081172;28;20479;-40
2022/05/01 12:58:40;;;;;;;14.73;10.40;;;15.90;94.00;;;;;;5060018;28;20439;-41
2022/05/01 13:01:06;;;;;;;10.67;9.67;;;15.80;94.60;;;;;;5069807;28;20505;-40
2022/05/01 13:03:39;;;;;;;11.03;10.03;;;15.80;94.30;;;;;;5071868;28;20212;-41
2022/05/01 13:06:14;;;;;;;11.53;10.53;;;15.70;94.70;;;;;;5068116;28;20535;-40
2022/05/01 13:08:45;;;;;;;9.27;8.40;;;15.70;94.60;;;;;;5071181;28;21113;-37
2022/05/01 13:11:32;;;;;;;11.10;10.10;;;15.70;94.80;;;;;;5067579;28;20434;-41
2022/05/01 13:13:59;;;;;;;12.90;10.83;;;15.80;94.60;;;;;;5060268;28;20423;-41
2022/05/01 13:16:31;;;;;;;10.80;9.90;;;15.90;95.00;;;;;;5072018;28;20426;-41
2022/05/01 13:19:19;;;;;;;11.23;10.00;;;15.90;94.70;;;;;;5087071;28;20431;-35
2022/05/01 13:21:50;;;;;;;13.60;11.27;;;15.80;93.80;;;;;;5070775;28;20475;-38
2022/05/01 13:24:18;;;;;;;11.00;10.00;;;15.90;94.80;;;;;;5070085;28;20910;-38
2022/05/01 13:26:44;;;;;;;11.13;10.13;;;16.00;95.10;;;;;;5068266;28;20438;-38
2022/05/01 13:29:12;;;;;;;10.87;9.97;;;15.90;95.00;;;;;;5061422;28;20419;-40